Time;durP1;ratioP1;P1;durP2;ratioP2;P2;SDS_P1;SDS_P2;PMS_P1;PMS_P2;Temp;Humidity;BMP_temperature;BMP_pressure;BME280_temperature;BME280_humidity;BME280_pressure;Samples;Min_cycle;Max_cycle;Signal;HPM_P1;HPM_P2
2022/12/21 00:01:13;;;;;;;31.57;15.90;;;;;;;0.58;88.51;95446.06;5070822;28;20300;-55
2022/12/21 00:03:45;;;;;;;31.10;16.93;;;;;;;0.56;88.55;95455.31;5070815;28;20185;-52
2022/12/21 00:06:11;;;;;;;31.67;16.43;;;;;;;0.61;87.93;95468.44;5071066;28;20239;-56
2022/12/21 00:08:42;;;;;;;38.80;18.57;;;;;;;0.56;87.38;95462.81;5070631;28;20594;-53
2022/12/21 00:11:08;;;;;;;30.90;16.93;;;;;;;0.73;87.77;95472.22;5070745;28;20576;-53
2022/12/21 00:13:33;;;;;;;33.53;17.20;;;;;;;0.74;87.66;95478.88;5069517;28;20666;-53
2022/12/21 00:16:05;;;;;;;31.10;17.47;;;;;;;0.77;87.53;95477.09;5069573;28;20274;-57
2022/12/21 00:18:33;;;;;;;37.07;18.40;;;;;;;0.82;86.80;95489.44;5069387;28;20275;-56
2022/12/21 00:21:16;;;;;;;36.33;17.77;;;;;;;0.89;85.75;95510.88;5070598;28;20211;-58
2022/12/21 00:23:44;;;;;;;40.03;17.30;;;;;;;0.85;85.72;95497.66;5070636;28;20189;-55
2022/12/21 00:26:11;;;;;;;36.13;19.03;;;;;;;0.73;87.80;95464.72;5070432;28;20247;-55
2022/12/21 00:28:36;;;;;;;34.77;18.93;;;;;;;0.72;88.70;95443.09;5069199;28;20188;-55
2022/12/21 00:31:08;;;;;;;36.87;17.97;;;;;;;0.67;88.21;95440.72;5070526;28;20579;-56
2022/12/21 00:33:35;;;;;;;44.27;18.43;;;;;;;0.76;88.54;95452.13;5070578;28;20201;-55
2022/12/21 00:36:01;;;;;;;34.10;18.03;;;;;;;0.67;87.81;95445.72;5070295;28;20204;-56
2022/12/21 00:38:27;;;;;;;41.03;18.87;;;;;;;0.73;86.96;95469.72;5070527;28;20229;-53
2022/12/21 00:41:03;;;;;;;43.00;17.57;;;;;;;0.77;87.45;95456.25;5073063;28;20212;-54
2022/12/21 00:43:34;;;;;;;38.37;17.17;;;;;;;0.62;88.44;95436.75;5074098;28;20227;-54
2022/12/21 00:46:00;;;;;;;40.23;16.40;;;;;;;0.89;86.85;95475.03;5074173;28;20235;-53
2022/12/21 00:48:31;;;;;;;37.43;17.83;;;;;;;0.66;88.21;95444.13;5073837;28;20216;-55
2022/12/21 00:51:04;;;;;;;35.50;19.57;;;;;;;0.66;86.74;95469.13;5074085;28;20221;-55
2022/12/21 00:53:29;;;;;;;39.30;18.60;;;;;;;0.60;87.33;95458.50;5074020;28;20193;-53
2022/12/21 00:55:56;;;;;;;36.83;18.13;;;;;;;0.41;90.13;95394.97;5073642;28;20621;-53
2022/12/21 00:58:22;;;;;;;36.23;18.47;;;;;;;0.55;89.08;95406.13;5073605;28;20236;-53
2022/12/21 01:00:57;;;;;;;31.10;16.30;;;;;;;0.50;89.29;95394.66;5073847;28;20291;-54
2022/12/21 01:03:24;;;;;;;36.20;17.97;;;;;;;0.56;90.62;95379.44;5073692;28;20204;-55
2022/12/21 01:05:51;;;;;;;37.10;17.37;;;;;;;0.55;90.81;95367.78;5073544;28;20200;-53
2022/12/21 01:08:18;;;;;;;37.53;17.40;;;;;;;0.59;89.83;95389.31;5073659;28;20253;-54
2022/12/21 01:10:44;;;;;;;35.90;17.13;;;;;;;0.70;88.23;95425.63;5073639;28;20292;-56
2022/12/21 01:13:11;;;;;;;35.03;17.00;;;;;;;0.71;87.39;95439.75;5073473;28;20261;-55
2022/12/21 01:15:41;;;;;;;31.83;17.00;;;;;;;0.71;87.89;95423.94;5073472;28;20255;-53
2022/12/21 01:18:07;;;;;;;41.10;19.33;;;;;;;0.67;88.38;95418.22;5073469;28;20188;-55
2022/12/21 01:20:33;;;;;;;37.67;17.50;;;;;;;0.67;87.92;95428.22;5072086;28;20310;-55
2022/12/21 01:22:58;;;;;;;36.73;17.97;;;;;;;0.51;88.70;95408.78;5073639;28;20212;-53
2022/12/21 01:25:24;;;;;;;35.30;18.13;;;;;;;0.39;90.83;95379.19;5073518;28;20265;-55
2022/12/21 01:27:49;;;;;;;29.47;17.33;;;;;;;0.32;91.91;95351.09;5073504;28;20679;-53
2022/12/21 01:30:15;;;;;;;33.90;17.30;;;;;;;0.41;91.53;95364.94;5073550;28;20212;-54
2022/12/21 01:32:41;;;;;;;39.20;17.63;;;;;;;0.18;92.83;95319.94;5073309;28;20250;-52
2022/12/21 01:35:07;;;;;;;34.40;16.93;;;;;;;0.14;95.19;95300.91;5073208;28;20223;-54
2022/12/21 01:37:33;;;;;;;34.23;17.00;;;;;;;0.24;94.68;95322.22;5071890;28;20193;-53
2022/12/21 01:39:58;;;;;;;35.43;17.47;;;;;;;0.28;94.13;95328.75;5073460;28;20227;-54
2022/12/21 01:42:24;;;;;;;29.03;15.47;;;;;;;0.23;96.00;95298.09;5073084;28;20181;-53
2022/12/21 01:45:08;;;;;;;36.43;16.47;;;;;;;0.26;96.13;95296.31;5073290;28;20201;-55
2022/12/21 01:48:01;;;;;;;30.93;16.80;;;;;;;0.41;93.84;95327.44;5073127;28;20280;-53
2022/12/21 01:50:48;;;;;;;35.07;16.60;;;;;;;0.35;94.60;95320.97;5068132;28;20235;-52
2022/12/21 01:53:25;;;;;;;34.13;15.33;;;;;;;0.29;93.28;95325.38;5072861;28;20193;-52
2022/12/21 01:55:54;;;;;;;35.07;16.27;;;;;;;0.37;93.28;95326.75;5072955;28;20208;-55
2022/12/21 01:58:22;;;;;;;36.77;16.03;;;;;;;0.38;92.84;95325.88;5088531;22;20251;-56
2022/12/21 02:00:48;;;;;;;25.63;14.97;;;;;;;0.67;91.22;95359.88;5074836;28;20215;-53
2022/12/21 02:03:17;;;;;;;31.23;17.03;;;;;;;0.71;90.09;95376.41;5092899;28;20551;-55
2022/12/21 02:05:49;;;;;;;31.43;16.83;;;;;;;0.37;91.20;95335.91;5074905;28;20206;-54
2022/12/21 02:08:15;;;;;;;35.87;16.30;;;;;;;0.44;91.88;95340.69;5093832;28;20192;-53
2022/12/21 02:10:41;;;;;;;30.33;15.83;;;;;;;0.47;91.42;95342.22;5092309;28;20700;-54
2022/12/21 02:13:11;;;;;;;30.80;16.53;;;;;;;0.27;91.98;95320.44;5092808;28;20582;-52
2022/12/21 02:15:54;;;;;;;30.70;14.87;;;;;;;0.21;93.85;95297.31;5092713;28;20212;-55
2022/12/21 02:18:34;;;;;;;27.43;14.83;;;;;;;0.23;94.53;95298.09;5093055;28;20222;-55
2022/12/21 02:21:05;;;;;;;34.03;15.20;;;;;;;0.24;93.34;95310.56;5092719;28;20207;-55
2022/12/21 02:23:33;;;;;;;27.17;14.90;;;;;;;0.27;94.39;95289.59;5092577;28;20607;-56
2022/12/21 02:26:17;;;;;;;22.63;11.67;;;;;;;0.19;94.84;95287.38;5092573;28;20235;-55
2022/12/21 02:29:20;;;;;;;20.70;11.27;;;;;;;0.11;93.57;95298.50;5093064;28;20283;-54
2022/12/21 02:32:03;;;;;;;19.47;9.83;;;;;;;0.06;90.92;95351.16;5092749;28;20293;-53
2022/12/21 02:34:54;;;;;;;13.10;7.37;;;;;;;-1.09;91.88;95186.81;5092598;28;20332;-57
2022/12/21 02:37:42;;;;;;;10.83;6.87;;;;;;;-0.15;91.92;95311.88;5092270;28;20191;-56
2022/12/21 02:40:32;;;;;;;12.13;6.67;;;;;;;-0.28;92.39;95313.94;5092317;28;20219;-53
2022/12/21 02:46:16;;;;;;;14.97;6.60;;;;;;;-0.18;92.17;95321.97;5092386;28;20227;-55
2022/12/21 02:48:51;;;;;;;13.30;6.87;;;;;;;-0.23;92.37;95329.63;5092382;28;20194;-53
2022/12/21 02:51:23;;;;;;;13.57;7.50;;;;;;;-0.24;93.85;95303.00;5092155;28;20635;-53
2022/12/21 02:53:49;;;;;;;11.33;6.77;;;;;;;-0.17;93.23;95314.44;5092470;28;20237;-56
2022/12/21 02:56:17;;;;;;;14.20;6.50;;;;;;;-0.15;93.84;95297.72;5092025;28;20219;-55
2022/12/21 02:58:42;;;;;;;15.60;6.57;;;;;;;-0.12;92.91;95304.25;5074173;28;20604;-53
2022/12/21 03:01:13;;;;;;;11.30;5.87;;;;;;;0.04;91.83;95327.09;5091997;28;20238;-56
2022/12/21 03:03:48;;;;;;;11.70;6.37;;;;;;;0.04;90.97;95329.59;5073018;28;20582;-55
2022/12/21 03:06:50;;;;;;;12.27;6.27;;;;;;;0.08;90.29;95341.09;5092309;28;20211;-54
2022/12/21 03:09:36;;;;;;;12.47;6.67;;;;;;;0.15;90.99;95332.53;5092015;28;20204;-54
2022/12/21 03:12:20;;;;;;;12.63;6.60;;;;;;;0.16;90.49;95345.00;5091871;28;20196;-54
2022/12/21 03:15:14;;;;;;;13.23;6.20;;;;;;;0.05;91.26;95318.69;5091821;28;20216;-54
2022/12/21 03:17:55;;;;;;;11.00;6.73;;;;;;;0.01;90.63;95333.00;5091831;28;20241;-55
2022/12/21 03:20:27;;;;;;;13.23;6.90;;;;;;;0.06;90.15;95335.34;5091698;28;20212;-53
2022/12/21 03:23:06;;;;;;;14.27;7.43;;;;;;;0.13;89.16;95352.56;5091917;28;20180;-56
2022/12/21 03:25:46;;;;;;;12.33;6.97;;;;;;;0.05;90.15;95334.53;5091671;28;20665;-53
2022/12/21 03:28:16;;;;;;;13.20;6.97;;;;;;;0.15;87.20;95380.00;5091768;28;20200;-55
2022/12/21 03:30:46;;;;;;;15.03;7.40;;;;;;;-0.02;87.62;95366.38;5091627;28;20239;-54
2022/12/21 03:33:15;;;;;;;15.83;7.73;;;;;;;-0.14;88.70;95344.28;5091695;28;20587;-56
2022/12/21 03:35:53;;;;;;;13.50;6.30;;;;;;;-0.17;88.82;95331.91;5091458;28;20200;-56
2022/12/21 03:38:23;;;;;;;13.50;7.30;;;;;;;-0.27;89.51;95312.28;5091847;28;20187;-54
2022/12/21 03:40:54;;;;;;;14.03;7.00;;;;;;;-0.34;89.79;95301.66;5091287;28;20215;-55
2022/12/21 03:43:33;;;;;;;10.83;5.50;;;;;;;-0.44;91.37;95265.38;5091687;28;20257;-57
2022/12/21 03:46:23;;;;;;;9.90;5.60;;;;;;;-0.24;92.40;95252.22;5099199;22;20246;-56
2022/12/21 03:48:57;;;;;;;9.17;5.37;;;;;;;-0.25;93.47;95236.44;5091397;28;20188;-55
2022/12/21 03:51:43;;;;;;;10.10;4.93;;;;;;;-0.33;93.76;95223.41;5071083;28;20203;-52
2022/12/21 03:54:38;;;;;;;8.03;5.10;;;;;;;-0.49;95.84;95202.31;5053125;28;20268;-53
2022/12/21 03:57:06;;;;;;;8.50;5.03;;;;;;;-0.53;96.50;95182.47;5071231;28;20646;-53
2022/12/21 03:59:32;;;;;;;7.70;5.00;;;;;;;-0.49;95.68;95206.47;5052979;28;20231;-53
2022/12/21 04:02:02;;;;;;;8.30;5.07;;;;;;;-0.54;96.65;95181.66;5070919;28;20185;-54
2022/12/21 04:04:34;;;;;;;10.67;5.47;;;;;;;-0.43;95.68;95204.59;5070800;28;20208;-56
2022/12/21 04:07:04;;;;;;;7.90;4.93;;;;;;;-0.33;95.96;95195.94;5070996;28;20244;-57
2022/12/21 04:09:30;;;;;;;11.37;5.60;;;;;;;-0.24;93.84;95224.75;5070885;28;20219;-56
2022/12/21 04:14:40;;;;;;;8.93;4.63;;;;;;;-0.18;93.00;95232.03;5073447;28;20247;-56
2022/12/21 04:17:05;;;;;;;8.30;5.27;;;;;;;-0.22;92.64;95241.31;5074536;28;20185;-55
2022/12/21 04:30:27;;;;;;;10.40;5.60;;;;;;;-0.34;95.51;95186.78;5094421;28;20214;-55
2022/12/21 04:32:52;;;;;;;10.27;6.10;;;;;;;-0.17;94.28;95214.53;5094584;28;20196;-53
2022/12/21 04:35:18;;;;;;;13.37;6.13;;;;;;;-0.15;94.83;95212.78;5094269;28;20214;-54
2022/12/21 04:37:43;;;;;;;12.77;6.50;;;;;;;-0.31;95.19;95198.38;5094363;28;20222;-57
2022/12/21 04:40:09;;;;;;;11.93;6.70;;;;;;;-0.41;96.66;95180.41;5094168;28;20208;-55
2022/12/21 04:42:34;;;;;;;11.03;6.53;;;;;;;-0.45;97.98;95158.06;5094192;28;20250;-55
2022/12/21 04:45:00;;;;;;;13.03;7.23;;;;;;;-0.40;98.24;95163.72;5094047;28;20261;-53
2022/12/21 04:47:26;;;;;;;10.80;6.80;;;;;;;-0.55;100.00;95127.63;5094247;28;20707;-56
2022/12/21 04:49:51;;;;;;;16.63;8.03;;;;;;;-0.38;100.00;95147.81;5093982;28;20686;-56
2022/12/21 04:52:17;;;;;;;14.70;7.30;;;;;;;-0.56;100.00;95137.63;5093955;28;20191;-54
2022/12/21 04:54:42;;;;;;;16.43;7.20;;;;;;;-0.73;100.00;95148.22;5094083;28;20311;-54
2022/12/21 04:57:11;;;;;;;12.90;7.87;;;;;;;-0.92;100.00;95134.69;5094111;28;20312;-57
2022/12/21 04:59:36;;;;;;;13.97;6.93;;;;;;;-0.94;100.00;95156.38;5093994;28;20587;-54
2022/12/21 05:02:01;;;;;;;16.03;8.53;;;;;;;-1.01;100.00;95164.94;5093909;28;20191;-56
2022/12/21 05:04:27;;;;;;;15.30;8.03;;;;;;;-0.89;100.00;95182.03;5093961;28;20208;-55
2022/12/21 05:06:54;;;;;;;18.07;8.07;;;;;;;-0.77;100.00;95181.63;5093830;28;20661;-55
2022/12/21 05:09:20;;;;;;;12.10;7.60;;;;;;;-0.70;100.00;95177.22;5093653;28;20222;-55
2022/12/21 05:11:45;;;;;;;12.77;7.13;;;;;;;-0.66;100.00;95174.59;5093737;28;20718;-56
2022/12/21 05:14:11;;;;;;;18.77;8.13;;;;;;;-0.51;100.00;95201.53;5075382;28;20207;-55
2022/12/21 05:16:38;;;;;;;16.90;8.83;;;;;;;-0.36;100.00;95220.16;5093659;28;20201;-54
2022/12/21 05:19:03;;;;;;;15.93;8.40;;;;;;;-0.56;100.00;95190.88;5093174;28;20689;-55
2022/12/21 05:21:29;;;;;;;13.33;7.87;;;;;;;-0.32;100.00;95217.53;5093708;28;20198;-55
2022/12/21 05:23:54;;;;;;;19.03;9.00;;;;;;;-0.37;100.00;95206.06;5093691;28;20192;-56
2022/12/21 05:26:20;;;;;;;17.97;9.37;;;;;;;-0.41;100.00;95205.38;5092984;28;20187;-54
2022/12/21 05:28:46;;;;;;;15.67;8.37;;;;;;;-0.58;100.00;95191.78;5093581;28;20227;-55
2022/12/21 05:31:13;;;;;;;15.87;8.23;;;;;;;-0.64;100.00;95197.81;5093487;28;20216;-54
2022/12/21 05:33:39;;;;;;;16.90;7.83;;;;;;;-0.68;100.00;95200.44;5093612;28;20196;-55
2022/12/21 05:36:07;;;;;;;12.73;7.60;;;;;;;-0.20;100.00;95222.09;5093391;28;20296;-55
2022/12/21 05:38:33;;;;;;;8.97;6.53;;;;;;;0.82;100.00;95226.72;5075016;28;20607;-57
2022/12/21 05:40:58;;;;;;;16.57;7.70;;;;;;;1.61;100.00;95225.22;5093164;28;20203;-57
2022/12/21 05:43:24;;;;;;;12.00;7.07;;;;;;;1.02;100.00;95412.00;5093291;28;20192;-57
2022/12/21 05:45:50;;;;;;;13.53;6.70;;;;;;;0.76;100.00;95452.94;5093738;28;20256;-56
2022/12/21 05:48:16;;;;;;;10.73;6.50;;;;;;;0.48;100.00;95428.91;5093238;28;20231;-56
2022/12/21 05:50:42;;;;;;;13.57;6.17;;;;;;;0.26;100.00;95402.97;5093475;28;20282;-55
2022/12/21 05:53:08;;;;;;;10.23;6.30;;;;;;;0.15;100.00;95360.84;5093307;28;20196;-55
2022/12/21 05:55:34;;;;;;;19.90;6.50;;;;;;;-0.04;100.00;95379.78;5093005;28;20242;-57
2022/12/21 05:58:00;;;;;;;11.17;6.63;;;;;;;-0.20;100.00;95361.16;5093114;28;20222;-54
2022/12/21 06:00:26;;;;;;;13.17;6.10;;;;;;;-0.35;100.00;95335.00;5092974;28;20215;-57
2022/12/21 06:02:51;;;;;;;12.00;6.73;;;;;;;-0.54;100.00;95313.97;5092936;28;20193;-56
2022/12/21 06:05:17;;;;;;;13.97;7.17;;;;;;;-0.63;100.00;95299.28;5092955;28;20210;-55
2022/12/21 06:07:42;;;;;;;12.30;7.03;;;;;;;-0.62;100.00;95317.56;5093001;28;20196;-54
2022/12/21 06:10:08;;;;;;;13.57;7.00;;;;;;;-0.51;100.00;95273.94;5092840;28;20749;-55
2022/12/21 06:12:34;;;;;;;14.07;6.60;;;;;;;-0.34;100.00;95239.22;5092811;28;20210;-57
2022/12/21 06:15:00;;;;;;;16.30;7.20;;;;;;;-0.12;100.00;95316.75;5092932;28;20203;-56
2022/12/21 06:17:27;;;;;;;15.20;7.37;;;;;;;0.00;100.00;95353.88;5092695;28;20223;-57
2022/12/21 06:19:53;;;;;;;13.53;6.63;;;;;;;0.08;100.00;95351.94;5074349;28;20599;-57
2022/12/21 06:22:18;;;;;;;12.77;6.33;;;;;;;0.23;100.00;95373.06;5092731;28;20653;-56
2022/12/21 06:24:43;;;;;;;14.60;7.67;;;;;;;0.24;100.00;95367.22;5074320;28;20276;-56
2022/12/21 06:27:09;;;;;;;14.60;6.17;;;;;;;0.14;100.00;95320.91;5092622;28;20324;-56
2022/12/21 06:29:34;;;;;;;14.47;6.37;;;;;;;0.23;100.00;95333.06;5092539;28;20212;-55
2022/12/21 06:31:59;;;;;;;14.90;7.37;;;;;;;0.32;100.00;95332.78;5092473;28;20602;-57
2022/12/21 06:34:25;;;;;;;14.77;7.43;;;;;;;0.33;100.00;95340.22;5092617;28;20664;-56
2022/12/21 06:36:50;;;;;;;18.40;7.27;;;;;;;0.49;100.00;95338.81;5092514;28;20191;-57
2022/12/21 06:39:16;;;;;;;14.73;7.70;;;;;;;0.55;100.00;95361.13;5092157;28;20237;-57
2022/12/21 06:41:42;;;;;;;17.00;6.70;;;;;;;0.48;100.00;95356.38;5092345;28;20204;-55
2022/12/21 06:44:08;;;;;;;15.33;7.03;;;;;;;0.29;100.00;95382.88;5092254;28;20665;-58
2022/12/21 06:46:34;;;;;;;12.70;7.10;;;;;;;-0.02;100.00;95360.56;5092418;28;20195;-58
2022/12/21 06:48:59;;;;;;;12.43;6.97;;;;;;;-0.05;100.00;95344.00;5092273;28;20260;-54
2022/12/21 06:51:25;;;;;;;12.00;6.77;;;;;;;0.12;100.00;95335.97;5092053;28;20218;-55
2022/12/21 06:53:53;;;;;;;12.93;6.50;;;;;;;0.12;100.00;95333.47;5092405;28;20204;-56
2022/12/21 06:56:23;;;;;;;15.57;6.90;;;;;;;0.23;100.00;95313.09;5092052;28;20275;-60
2022/12/21 06:58:50;;;;;;;13.07;6.70;;;;;;;0.40;100.00;95255.81;5092101;28;20191;-58
2022/12/21 07:01:23;;;;;;;11.27;7.20;;;;;;;0.58;100.00;95328.50;5092068;28;20198;-55
2022/12/21 07:03:48;;;;;;;14.23;7.17;;;;;;;0.80;100.00;95318.53;5092133;28;20185;-55
2022/12/21 07:06:15;;;;;;;10.53;6.17;;;;;;;0.85;100.00;95289.97;5092098;28;20269;-54
2022/12/21 07:08:41;;;;;;;14.17;7.37;;;;;;;1.01;100.00;95319.44;5091998;28;20199;-57
2022/12/21 07:11:13;;;;;;;12.73;5.80;;;;;;;0.99;100.00;95332.00;5091809;28;20214;-56
2022/12/21 07:13:41;;;;;;;13.77;8.10;;;;;;;1.03;100.00;95278.44;5091630;28;20267;-56
2022/12/21 07:16:08;;;;;;;10.67;6.67;;;;;;;1.23;100.00;95333.56;5092144;28;20243;-58
2022/12/21 07:18:34;;;;;;;12.90;7.23;;;;;;;1.41;100.00;95340.44;5091745;28;20230;-55
2022/12/21 07:21:05;;;;;;;11.20;6.53;;;;;;;1.58;100.00;95353.09;5092090;28;20597;-56
2022/12/21 07:23:32;;;;;;;13.33;6.67;;;;;;;1.61;100.00;95335.47;5092002;28;20188;-56
2022/12/21 07:25:58;;;;;;;12.10;6.27;;;;;;;1.78;100.00;95338.97;5091905;28;20207;-57
2022/12/21 07:28:24;;;;;;;12.47;7.40;;;;;;;1.95;100.00;95399.28;5091614;28;20289;-56
2022/12/21 07:30:51;;;;;;;13.97;6.90;;;;;;;1.93;100.00;95351.72;5091696;28;20273;-55
2022/12/21 07:33:18;;;;;;;16.93;8.33;;;;;;;2.01;100.00;95356.41;5073384;28;20196;-55
2022/12/21 07:35:45;;;;;;;13.23;7.60;;;;;;;2.18;100.00;95475.22;5073216;28;20210;-54
2022/12/21 07:38:11;;;;;;;11.57;6.63;;;;;;;1.98;100.00;95501.94;5091706;28;20191;-54
2022/12/21 07:40:40;;;;;;;12.63;6.90;;;;;;;1.77;100.00;95483.50;5091301;28;20208;-56
2022/12/21 07:43:09;;;;;;;10.50;6.30;;;;;;;1.60;100.00;95390.59;5091419;28;20189;-55
2022/12/21 07:45:39;;;;;;;15.53;7.20;;;;;;;1.99;100.00;95398.28;5091566;28;20218;-56
2022/12/21 07:48:05;;;;;;;13.87;7.30;;;;;;;1.79;100.00;95445.84;5090750;28;20211;-56
2022/12/21 07:50:30;;;;;;;15.57;7.03;;;;;;;2.03;100.00;95422.34;5091491;28;20207;-56
2022/12/21 07:52:58;;;;;;;33.97;13.47;;;;;;;2.26;100.00;95392.16;5091094;28;20241;-55
2022/12/21 07:55:25;;;;;;;27.63;13.77;;;;;;;2.36;100.00;95313.16;5073291;28;20290;-56
2022/12/21 07:57:51;;;;;;;15.30;8.67;;;;;;;2.84;100.00;95411.44;5091542;28;20199;-55
2022/12/21 08:00:17;;;;;;;16.43;8.60;;;;;;;2.75;100.00;95482.09;5091190;28;20211;-55
2022/12/21 08:02:43;;;;;;;20.20;9.30;;;;;;;2.54;100.00;95443.63;5091162;28;20196;-56
2022/12/21 08:05:08;;;;;;;14.60;7.70;;;;;;;2.39;100.00;95398.28;5091182;28;20746;-56
2022/12/21 08:07:34;;;;;;;23.07;9.27;;;;;;;2.54;100.00;95372.59;5091123;28;20226;-62
2022/12/21 08:09:59;;;;;;;14.30;8.97;;;;;;;2.96;100.00;95450.25;5091166;28;20621;-56
2022/12/21 08:12:25;;;;;;;17.90;9.90;;;;;;;3.19;100.00;95452.63;5090905;28;20203;-56
2022/12/21 08:14:50;;;;;;;29.10;14.43;;;;;;;3.09;100.00;95446.38;5090964;28;20215;-56
2022/12/21 08:17:16;;;;;;;29.57;16.47;;;;;;;2.73;100.00;95407.75;5091112;28;20268;-56
2022/12/21 08:19:42;;;;;;;32.63;17.03;;;;;;;3.10;100.00;95378.47;5090819;28;20690;-56
2022/12/21 08:22:09;;;;;;;30.77;16.73;;;;;;;3.40;100.00;95424.03;5091057;28;20192;-56
2022/12/21 08:24:35;;;;;;;32.03;16.00;;;;;;;3.53;100.00;95451.94;5090910;28;20212;-57
2022/12/21 08:27:00;;;;;;;31.27;16.87;;;;;;;3.82;100.00;95436.34;5072826;28;20192;-56
2022/12/21 08:29:26;;;;;;;31.73;17.67;;;;;;;4.27;100.00;95469.44;5090722;28;20746;-56
2022/12/21 08:31:51;;;;;;;35.07;15.83;;;;;;;4.20;100.00;95485.72;5090689;28;20193;-57
2022/12/21 08:34:17;;;;;;;34.97;17.07;;;;;;;4.43;100.00;95437.63;5090695;28;20204;-56
2022/12/21 08:36:42;;;;;;;32.83;16.83;;;;;;;4.62;100.00;95468.56;5072585;28;20573;-58
2022/12/21 08:39:09;;;;;;;27.57;15.43;;;;;;;4.97;100.00;95510.47;5072535;28;20205;-56
2022/12/21 08:41:34;;;;;;;30.23;15.80;;;;;;;5.17;100.00;95496.06;5090746;28;20199;-55
2022/12/21 08:44:00;;;;;;;30.23;16.23;;;;;;;5.44;100.00;95519.88;5090711;28;20179;-58
2022/12/21 08:46:26;;;;;;;29.63;15.80;;;;;;;5.64;100.00;95479.31;5090974;28;20203;-56
2022/12/21 08:48:52;;;;;;;34.37;17.90;;;;;;;5.94;100.00;95540.81;5090266;28;20188;-59
2022/12/21 08:51:17;;;;;;;34.53;16.60;;;;;;;6.11;100.00;95519.72;5090952;28;20526;-57
2022/12/21 08:53:43;;;;;;;28.73;15.00;;;;;;;6.03;100.00;95511.75;5090947;28;20659;-57
2022/12/21 08:56:08;;;;;;;22.73;14.30;;;;;;;5.99;99.67;95576.72;5090781;28;20293;-56
2022/12/21 08:58:34;;;;;;;26.47;15.33;;;;;;;6.18;86.85;95584.16;5090530;28;20622;-57
2022/12/21 09:01:00;;;;;;;36.50;16.67;;;;;;;6.33;89.73;95508.41;5091712;28;20245;-57
2022/12/21 09:03:26;;;;;;;28.70;15.23;;;;;;;6.67;83.92;95503.13;5094009;28;20742;-54
2022/12/21 09:05:57;;;;;;;38.17;17.67;;;;;;;6.88;79.56;95571.03;5093906;28;20210;-57
2022/12/21 09:08:22;;;;;;;32.33;15.73;;;;;;;7.01;78.52;95572.78;5093875;28;20200;-55
2022/12/21 09:10:48;;;;;;;24.03;15.07;;;;;;;6.69;71.94;95626.81;5094393;28;20256;-56
2022/12/21 09:13:13;;;;;;;34.80;16.73;;;;;;;6.70;74.06;95563.59;5093747;28;20188;-57
2022/12/21 09:15:42;;;;;;;26.23;15.50;;;;;;;6.43;75.36;95522.16;5093986;28;20206;-55
2022/12/21 09:18:09;;;;;;;25.87;14.90;;;;;;;6.56;71.96;95603.97;5093975;28;20260;-57
2022/12/21 09:20:35;;;;;;;26.63;13.97;;;;;;;6.90;74.56;95523.75;5094076;28;20594;-54
2022/12/21 09:23:01;;;;;;;29.73;17.10;;;;;;;7.13;73.85;95540.97;5094001;28;20192;-56
2022/12/21 09:25:26;;;;;;;25.77;15.50;;;;;;;7.43;74.89;95508.84;5075610;28;20597;-58
2022/12/21 09:27:51;;;;;;;25.47;13.90;;;;;;;8.22;100.00;95034.59;5093873;28;20575;-55
2022/12/21 09:30:17;;;;;;;20.70;11.97;;;;;;;9.84;100.00;95092.09;5093792;28;20201;-57
2022/12/21 09:32:42;;;;;;;21.67;13.67;;;;;;;11.02;100.00;95098.19;5093701;28;20675;-58
2022/12/21 09:35:08;;;;;;;27.60;17.57;;;;;;;11.82;100.00;95545.91;5093573;28;20260;-57
2022/12/21 09:37:33;;;;;;;31.47;17.47;;;;;;;10.24;66.76;95620.97;5093354;28;20204;-56
2022/12/21 09:39:59;;;;;;;31.60;16.37;;;;;;;8.50;65.36;95552.94;5093312;28;20615;-57
2022/12/21 09:43:20;;;;;;;31.60;16.77;;;;;;;7.88;70.77;95399.78;5093404;28;20337;-58
2022/12/21 09:46:04;;;;;;;29.57;16.73;;;;;;;7.78;71.10;95391.13;5088638;22;20714;-56
2022/12/21 09:48:50;;;;;;;37.03;15.67;;;;;;;8.07;69.24;95445.84;5093581;28;20198;-58
2022/12/21 09:51:23;;;;;;;27.90;16.57;;;;;;;8.00;72.56;95333.19;5091934;28;20389;-60
2022/12/21 09:53:53;;;;;;;32.13;16.07;;;;;;;8.44;71.14;95389.44;5093302;28;20271;-56
2022/12/21 09:56:23;;;;;;;29.43;16.80;;;;;;;8.34;71.27;95360.53;5093114;28;20184;-58
2022/12/21 09:58:50;;;;;;;28.60;15.70;;;;;;;8.63;69.98;95418.66;5100675;22;20246;-57
2022/12/21 10:01:28;;;;;;;27.03;15.87;;;;;;;8.18;70.44;95362.41;5072774;28;20271;-58
2022/12/21 10:04:38;;;;;;;22.93;14.70;;;;;;;8.92;68.34;95435.31;5072814;28;20272;-56
2022/12/21 10:07:33;;;;;;;24.50;13.67;;;;;;;8.76;67.33;95449.91;5039327;28;20207;-56
2022/12/21 10:10:24;;;;;;;22.00;12.23;;;;;;;8.55;65.84;95463.94;5072651;28;20725;-56
2022/12/21 10:13:07;;;;;;;30.53;13.67;;;;;;;8.79;66.04;95454.75;5072502;28;20181;-56
2022/12/21 10:15:41;;;;;;;23.93;14.27;;;;;;;9.26;68.83;95378.91;5054530;28;20228;-55
2022/12/21 10:18:16;;;;;;;25.13;13.20;;;;;;;8.85;65.24;95460.25;5072549;28;20192;-56
2022/12/21 10:21:31;;;;;;;22.93;13.37;;;;;;;8.79;61.62;95540.97;5072437;28;20763;-57
2022/12/21 10:23:57;;;;;;;24.20;13.87;;;;;;;9.33;66.05;95410.56;5071945;28;20204;-57
2022/12/21 10:26:26;;;;;;;27.20;13.70;;;;;;;9.65;62.49;95523.41;5072356;28;20185;-56
2022/12/21 10:29:01;;;;;;;24.70;13.57;;;;;;;9.66;62.35;95488.66;5072371;28;20203;-57
2022/12/21 10:31:40;;;;;;;30.27;14.50;;;;;;;10.21;59.42;95560.22;5072376;28;20192;-56
2022/12/21 10:34:18;;;;;;;23.63;13.70;;;;;;;10.39;61.09;95510.66;5072679;28;20223;-57
2022/12/21 10:36:46;;;;;;;26.93;12.97;;;;;;;10.68;62.03;95484.00;5072540;28;20173;-56
2022/12/21 10:39:15;;;;;;;22.17;12.20;;;;;;;10.77;60.97;95490.13;5072426;28;20251;-57
2022/12/21 10:41:44;;;;;;;26.63;13.70;;;;;;;10.85;60.71;95498.84;5072303;28;20188;-55
2022/12/21 10:44:19;;;;;;;17.60;11.30;;;;;;;11.18;62.13;95454.84;5072011;28;20229;-55
2022/12/21 10:46:46;;;;;;;19.97;11.47;;;;;;;11.29;61.04;95480.31;5072194;28;20288;-58
2022/12/21 10:49:30;;;;;;;17.07;10.83;;;;;;;11.22;57.22;95573.31;5071801;28;20201;-57
2022/12/21 10:51:56;;;;;;;19.97;11.37;;;;;;;11.30;59.22;95496.41;5072104;28;20180;-58
2022/12/21 10:54:27;;;;;;;16.37;11.50;;;;;;;11.35;57.79;95528.22;5071758;28;20653;-59
2022/12/21 10:56:54;;;;;;;21.83;11.23;;;;;;;11.41;56.48;95558.31;5071742;28;20272;-58
2022/12/21 10:59:38;;;;;;;23.20;12.07;;;;;;;11.22;57.24;95526.69;5071971;28;20666;-57
2022/12/21 11:02:06;;;;;;;15.33;10.17;;;;;;;11.20;58.30;95493.72;5071881;28;20181;-57
2022/12/21 11:04:32;;;;;;;20.60;11.10;;;;;;;11.38;58.27;95487.28;5071651;28;20248;-56
2022/12/21 11:07:06;;;;;;;18.63;11.40;;;;;;;11.55;54.50;95587.88;5071723;28;20188;-58
2022/12/21 11:09:40;;;;;;;18.63;10.70;;;;;;;11.49;54.63;95568.75;5071640;28;20221;-58
2022/12/21 11:12:12;;;;;;;20.67;10.33;;;;;;;11.36;54.76;95557.84;5053613;28;20646;-56
2022/12/21 11:14:38;;;;;;;20.13;11.23;;;;;;;11.42;57.21;95468.28;5071787;28;20215;-57
2022/12/21 11:17:04;;;;;;;19.47;11.43;;;;;;;11.64;56.05;95496.31;5071342;28;20348;-59
2022/12/21 11:19:34;;;;;;;18.97;11.50;;;;;;;11.58;53.12;95573.19;5071540;28;20224;-58
2022/12/21 11:22:00;;;;;;;18.23;11.37;;;;;;;11.29;55.70;95489.69;5071557;28;20184;-57
2022/12/21 11:24:32;;;;;;;14.57;10.20;;;;;;;11.30;56.06;95463.31;5070776;28;20209;-57
2022/12/21 11:27:01;;;;;;;25.60;10.53;;;;;;;11.22;54.01;95511.41;5071471;28;20196;-61
2022/12/21 11:29:37;;;;;;;18.00;10.87;;;;;;;11.14;54.94;95491.63;5071659;28;20705;-57
2022/12/21 11:32:09;;;;;;;20.20;10.67;;;;;;;10.99;51.91;95561.44;5071255;28;20181;-56
2022/12/21 11:34:58;;;;;;;20.27;11.10;;;;;;;10.90;55.55;95458.63;5071410;28;20370;-59
2022/12/21 11:37:35;;;;;;;19.13;10.90;;;;;;;11.11;57.06;95407.88;5071218;28;20192;-58
2022/12/21 11:40:10;;;;;;;20.73;11.57;;;;;;;11.42;57.85;95391.91;5071526;28;20244;-56
2022/12/21 11:42:51;;;;;;;18.63;10.67;;;;;;;11.33;55.79;95448.59;5071565;28;20196;-56
2022/12/21 11:45:23;;;;;;;22.33;11.20;;;;;;;11.03;54.96;95461.06;5071348;28;20316;-57
2022/12/21 11:48:06;;;;;;;19.63;11.17;;;;;;;11.24;57.07;95400.94;5071626;28;20196;-58
2022/12/21 11:50:40;;;;;;;18.30;10.90;;;;;;;11.48;54.71;95462.75;5071199;28;20283;-57
2022/12/21 11:53:06;;;;;;;15.83;9.80;;;;;;;11.47;53.67;95489.13;5071250;28;20238;-57
2022/12/21 11:55:39;;;;;;;16.90;10.57;;;;;;;11.50;53.43;95470.25;5070984;28;20690;-56